Time;durP1;ratioP1;P1;durP2;ratioP2;P2;SDS_P1;SDS_P2;PMS_P1;PMS_P2;Temp;Humidity;BMP_temperature;BMP_pressure;BME280_temperature;BME280_humidity;BME280_pressure;Samples;Min_cycle;Max_cycle;Signal;HPM_P1;HPM_P2
2023/05/19 00:00:30;;;;;;;8.10;3.23;;;;;;;15.89;45.41;97910.47;4998494;28;20426;-71
2023/05/19 00:02:55;;;;;;;9.80;3.70;;;;;;;15.85;45.07;97907.34;5006401;28;21011;-70
2023/05/19 00:05:21;;;;;;;7.43;3.50;;;;;;;15.89;44.99;97906.03;5007852;28;20548;-70
2023/05/19 00:07:50;;;;;;;10.57;3.80;;;;;;;15.94;45.60;97908.16;5009457;28;20795;-70
2023/05/19 00:10:16;;;;;;;9.53;4.20;;;;;;;15.97;45.81;97907.81;5004475;28;20443;-69
2023/05/19 00:12:42;;;;;;;10.80;3.73;;;;;;;16.01;45.58;97914.41;5007746;28;20435;-69
2023/05/19 00:15:09;;;;;;;10.93;3.33;;;;;;;16.01;45.30;97906.47;5009856;28;20507;-69
2023/05/19 00:17:35;;;;;;;11.50;3.70;;;;;;;15.97;45.17;97911.28;5023293;28;20180;-68
2023/05/19 00:20:06;;;;;;;5.50;3.60;;;;;;;15.92;45.82;97903.03;5017510;28;20754;-70
2023/05/19 00:22:31;;;;;;;6.03;3.50;;;;;;;15.85;47.11;97903.88;5007136;28;20471;-69
2023/05/19 00:24:57;;;;;;;8.43;4.37;;;;;;;15.65;47.97;97904.22;5019363;28;20450;-71
2023/05/19 00:27:22;;;;;;;7.10;3.67;;;;;;;15.69;48.32;97918.75;5008079;28;20270;-70
2023/05/19 00:29:48;;;;;;;11.00;3.37;;;;;;;15.72;47.71;97901.72;5015546;28;20299;-69
2023/05/19 00:32:14;;;;;;;8.23;3.30;;;;;;;15.63;47.89;97898.25;5009747;28;20715;-72
2023/05/19 00:34:39;;;;;;;8.77;3.83;;;;;;;15.56;48.12;97903.41;5012866;28;20272;-70
2023/05/19 00:37:05;;;;;;;5.20;3.60;;;;;;;15.57;47.43;97902.41;5014259;28;20842;-70
2023/05/19 00:39:30;;;;;;;7.20;3.30;;;;;;;15.53;47.76;97898.47;5026485;28;20201;-70
2023/05/19 00:41:56;;;;;;;9.57;3.53;;;;;;;15.53;47.55;97898.47;5029250;28;20276;-71
2023/05/19 00:44:21;;;;;;;10.87;3.70;;;;;;;15.46;47.81;97905.38;5056301;28;20204;-68
2023/05/19 00:46:47;;;;;;;6.10;3.60;;;;;;;15.42;48.89;97904.91;5037399;28;20239;-70
2023/05/19 00:49:12;;;;;;;8.60;3.60;;;;;;;15.39;49.19;97899.94;5033156;28;20240;-71
2023/05/19 00:51:38;;;;;;;7.50;4.03;;;;;;;15.42;49.04;97899.63;5033677;28;20176;-66
2023/05/19 00:54:03;;;;;;;7.53;3.73;;;;;;;15.27;49.21;97896.81;5016548;28;20192;-67
2023/05/19 00:56:29;;;;;;;4.60;3.67;;;;;;;15.31;49.35;97898.13;5022244;28;20576;-71
2023/05/19 00:58:56;;;;;;;7.90;3.50;;;;;;;15.23;49.46;97900.78;5012264;28;20215;-69
2023/05/19 01:01:21;;;;;;;5.53;3.23;;;;;;;15.22;49.45;97903.59;5012350;28;20463;-69
2023/05/19 01:03:47;;;;;;;9.17;3.97;;;;;;;15.24;49.42;97905.06;5012475;28;20451;-66
2023/05/19 01:06:13;;;;;;;5.67;2.90;;;;;;;15.24;48.72;97899.78;4976468;28;20180;-70
2023/05/19 01:08:39;;;;;;;6.30;3.37;;;;;;;15.27;48.33;97891.53;5020618;28;20179;-69
2023/05/19 01:11:05;;;;;;;6.90;3.10;;;;;;;15.20;49.00;97886.09;5017110;28;20928;-68
2023/05/19 01:13:31;;;;;;;8.60;3.67;;;;;;;15.19;49.63;97880.97;5010523;28;20197;-69
2023/05/19 01:16:11;;;;;;;10.80;3.70;;;;;;;15.18;49.84;97892.53;5019012;28;20427;-70
2023/05/19 01:18:46;;;;;;;7.93;3.70;;;;;;;15.23;49.02;97897.31;5014213;28;20192;-69
2023/05/19 01:21:44;;;;;;;8.17;3.80;;;;;;;15.24;48.81;97906.91;5008898;28;20965;-70
2023/05/19 01:24:40;;;;;;;10.53;3.37;;;;;;;15.24;48.96;97891.88;5016159;28;20435;-70
2023/05/19 01:27:14;;;;;;;6.77;3.27;;;;;;;15.27;48.31;97890.72;5005724;28;20412;-70
2023/05/19 01:29:55;;;;;;;9.00;3.90;;;;;;;15.20;48.14;97901.09;5013270;28;20450;-70
2023/05/19 01:32:22;;;;;;;14.70;4.10;;;;;;;15.09;49.75;97901.44;5009285;28;20453;-70
2023/05/19 01:34:49;;;;;;;4.33;3.17;;;;;;;15.11;50.22;97908.22;5008744;28;20412;-69
2023/05/19 01:37:16;;;;;;;5.93;4.00;;;;;;;15.10;50.40;97906.56;5009011;28;20418;-69
2023/05/19 01:39:43;;;;;;;5.27;3.00;;;;;;;15.09;50.26;97910.19;5009604;28;20511;-69
2023/05/19 01:42:09;;;;;;;7.40;3.40;;;;;;;15.00;50.50;97906.72;5009145;28;20995;-70
2023/05/19 01:44:35;;;;;;;7.83;3.23;;;;;;;15.02;50.51;97903.91;5008188;28;20448;-70
2023/05/19 01:47:01;;;;;;;5.17;3.60;;;;;;;14.90;50.84;97900.78;5009565;28;20836;-70
2023/05/19 01:49:27;;;;;;;9.70;3.33;;;;;;;14.96;50.66;97902.75;5008014;28;20192;-70
2023/05/19 01:51:52;;;;;;;7.00;3.70;;;;;;;14.99;50.03;97899.78;5017412;28;20423;-69
2023/05/19 01:54:18;;;;;;;5.97;3.53;;;;;;;15.00;49.97;97897.94;5018457;28;20191;-71
2023/05/19 01:57:10;;;;;;;6.23;3.17;;;;;;;14.96;49.87;97905.38;5025597;28;20184;-71
2023/05/19 01:59:51;;;;;;;7.80;3.10;;;;;;;15.00;49.75;97900.59;5007705;28;20733;-69
2023/05/19 02:02:29;;;;;;;5.60;3.43;;;;;;;14.98;50.56;97890.22;5007756;28;20473;-71
2023/05/19 02:05:02;;;;;;;5.60;3.23;;;;;;;14.90;51.10;97896.31;5023669;28;20509;-70
2023/05/19 02:07:39;;;;;;;8.97;3.87;;;;;;;14.83;51.39;97894.47;5018256;28;20431;-70
2023/05/19 02:10:08;;;;;;;6.43;3.77;;;;;;;14.82;51.75;97898.94;5013467;28;20450;-70
2023/05/19 02:12:36;;;;;;;6.33;3.57;;;;;;;14.86;51.43;97902.91;5015668;28;21318;-70
2023/05/19 02:15:06;;;;;;;8.90;3.70;;;;;;;14.87;51.53;97896.63;5009246;28;20438;-69
2023/05/19 02:17:35;;;;;;;6.00;3.60;;;;;;;14.90;51.38;97901.56;4990615;28;20479;-70
2023/05/19 02:20:03;;;;;;;10.90;3.27;;;;;;;14.81;51.41;97901.72;5007991;28;20492;-70
2023/05/19 02:22:29;;;;;;;4.83;3.30;;;;;;;14.82;51.38;97906.00;5008591;28;20462;-70
2023/05/19 02:24:56;;;;;;;7.13;3.27;;;;;;;14.80;51.00;97908.81;5017187;28;20522;-71
2023/05/19 02:27:21;;;;;;;7.70;4.07;;;;;;;14.83;51.41;97912.94;5008735;28;21027;-71
2023/05/19 02:29:47;;;;;;;7.70;3.47;;;;;;;14.82;51.25;97909.50;5017684;28;20506;-70
2023/05/19 02:32:13;;;;;;;6.67;3.50;;;;;;;14.79;51.13;97907.16;5007045;28;20311;-71
2023/05/19 02:34:38;;;;;;;6.83;3.70;;;;;;;14.79;51.54;97909.81;5016977;28;20556;-70
2023/05/19 02:37:04;;;;;;;7.00;3.63;;;;;;;14.81;50.84;97913.13;5009221;28;20447;-70
2023/05/19 02:39:33;;;;;;;7.70;3.67;;;;;;;14.66;50.41;97904.97;5016661;28;20302;-71
2023/05/19 02:41:59;;;;;;;10.40;3.80;;;;;;;14.73;50.05;97905.19;5008295;28;20631;-70
2023/05/19 02:44:25;;;;;;;10.60;3.20;;;;;;;14.69;49.89;97903.84;5014460;28;20430;-70
2023/05/19 02:46:50;;;;;;;9.63;3.87;;;;;;;14.64;50.17;97895.56;5016694;28;20847;-70
2023/05/19 02:49:15;;;;;;;11.80;3.17;;;;;;;14.71;50.52;97893.97;5008715;28;20827;-70
2023/05/19 02:51:41;;;;;;;7.40;3.70;;;;;;;14.68;50.99;97891.66;5007706;28;20287;-68
2023/05/19 02:54:06;;;;;;;5.40;3.50;;;;;;;14.68;51.28;97892.47;5009738;28;20210;-70
2023/05/19 02:56:32;;;;;;;8.77;4.00;;;;;;;14.65;51.51;97889.28;4997773;28;20180;-69
2023/05/19 02:58:57;;;;;;;8.23;3.60;;;;;;;14.64;51.74;97885.00;5009473;28;20949;-70
2023/05/19 03:01:23;;;;;;;6.03;3.70;;;;;;;14.66;51.54;97883.88;5007741;28;20270;-70
2023/05/19 03:03:48;;;;;;;6.93;3.40;;;;;;;14.67;50.74;97889.97;5008181;28;20223;-69
2023/05/19 03:06:14;;;;;;;6.33;3.40;;;;;;;14.68;51.42;97883.72;4997888;28;20176;-69
2023/05/19 03:08:39;;;;;;;6.80;3.27;;;;;;;14.67;51.43;97888.19;5008128;28;20580;-69
2023/05/19 03:11:05;;;;;;;8.50;3.73;;;;;;;14.69;51.10;97888.84;4997392;28;20180;-70
2023/05/19 03:13:30;;;;;;;3.97;2.70;;;;;;;14.53;51.14;97884.31;5012997;28;20231;-70
2023/05/19 03:15:57;;;;;;;5.20;3.57;;;;;;;14.45;51.36;97886.94;5010589;28;20180;-70
2023/05/19 03:18:23;;;;;;;5.27;3.20;;;;;;;14.52;51.40;97882.69;5010215;28;20189;-70
2023/05/19 03:20:49;;;;;;;6.90;2.80;;;;;;;14.58;51.26;97884.69;5008315;28;20434;-70
2023/05/19 03:23:15;;;;;;;6.70;3.33;;;;;;;14.54;51.06;97893.09;5010736;28;20220;-70
2023/05/19 03:25:40;;;;;;;4.30;3.00;;;;;;;14.49;51.09;97883.00;5007798;28;20184;-70
2023/05/19 03:28:06;;;;;;;4.83;3.27;;;;;;;14.47;50.98;97882.34;5016522;28;20184;-70
2023/05/19 03:30:31;;;;;;;7.90;3.07;;;;;;;14.48;51.24;97885.78;5016611;28;20210;-70
2023/05/19 03:32:56;;;;;;;8.27;3.00;;;;;;;14.52;51.24;97887.94;5008271;28;20196;-70
2023/05/19 03:35:22;;;;;;;5.77;3.00;;;;;;;14.50;51.48;97889.09;5008003;28;20661;-69
2023/05/19 03:37:47;;;;;;;6.50;3.10;;;;;;;14.50;51.13;97882.00;5003975;28;20184;-69
2023/05/19 03:40:13;;;;;;;5.90;3.23;;;;;;;14.50;51.06;97884.63;5015092;28;20646;-71
2023/05/19 03:42:38;;;;;;;6.27;3.47;;;;;;;14.47;51.24;97886.78;5007585;28;21742;-70
2023/05/19 03:45:04;;;;;;;11.83;3.30;;;;;;;14.35;51.27;97881.00;4999805;28;20207;-69
2023/05/19 03:47:30;;;;;;;7.80;3.53;;;;;;;14.38;51.21;97886.75;5006831;28;20271;-70
2023/05/19 03:49:55;;;;;;;5.30;3.60;;;;;;;14.32;51.71;97883.94;5005713;28;20291;-69
2023/05/19 03:52:21;;;;;;;4.90;3.33;;;;;;;14.27;52.25;97884.44;5015138;28;20443;-70
2023/05/19 03:54:46;;;;;;;6.57;3.30;;;;;;;14.33;52.08;97888.22;5007583;28;20271;-70
2023/05/19 03:57:13;;;;;;;6.70;3.60;;;;;;;14.28;51.88;97878.97;5007419;28;20211;-69
2023/05/19 03:59:40;;;;;;;5.87;3.03;;;;;;;14.31;51.76;97884.94;5004741;28;20613;-69
2023/05/19 04:02:05;;;;;;;12.37;4.00;;;;;;;14.27;51.50;97885.22;4997534;28;20565;-69
2023/05/19 04:04:31;;;;;;;9.37;3.10;;;;;;;14.27;51.49;97890.50;4999403;28;20467;-69
2023/05/19 04:06:57;;;;;;;11.30;3.50;;;;;;;14.23;51.22;97894.47;5011247;28;20191;-70
2023/05/19 04:09:22;;;;;;;7.93;3.40;;;;;;;14.21;51.25;97890.31;5010241;28;20705;-70
2023/05/19 04:11:48;;;;;;;7.00;3.50;;;;;;;14.24;51.57;97892.63;5006545;28;20575;-69
2023/05/19 04:14:13;;;;;;;9.53;3.17;;;;;;;14.21;51.49;97895.59;5014510;28;20315;-70
2023/05/19 04:16:39;;;;;;;6.47;3.00;;;;;;;14.22;51.46;97892.81;5012686;28;20204;-71
2023/05/19 04:19:04;;;;;;;7.20;3.80;;;;;;;14.22;51.33;97898.09;5010473;28;20793;-70
2023/05/19 04:21:30;;;;;;;6.77;3.20;;;;;;;14.25;51.08;97896.94;5006943;28;20177;-70
2023/05/19 04:23:57;;;;;;;7.33;3.43;;;;;;;14.30;51.25;97905.19;5012809;28;20257;-71
2023/05/19 04:26:25;;;;;;;7.20;3.20;;;;;;;14.29;51.22;97896.44;5013367;28;20189;-70
2023/05/19 04:28:51;;;;;;;7.93;3.47;;;;;;;14.26;51.39;97893.31;5003243;28;20427;-68
2023/05/19 04:31:16;;;;;;;5.03;3.70;;;;;;;14.32;51.40;97899.75;5009580;28;20629;-70
2023/05/19 04:33:42;;;;;;;5.70;3.23;;;;;;;14.25;51.51;97897.75;5006843;28;20451;-70
2023/05/19 04:36:09;;;;;;;6.57;3.40;;;;;;;14.18;52.33;97899.38;5004465;28;20603;-70
2023/05/19 04:38:41;;;;;;;6.83;3.30;;;;;;;14.23;52.22;97897.09;5008133;28;20227;-70
2023/05/19 04:41:09;;;;;;;6.77;3.43;;;;;;;14.27;52.34;97900.25;5009201;28;20934;-70
2023/05/19 04:43:35;;;;;;;6.30;3.80;;;;;;;14.29;52.23;97903.56;5004621;28;21065;-70
2023/05/19 04:46:04;;;;;;;4.53;3.60;;;;;;;14.33;52.15;97893.50;5012587;28;20427;-70
2023/05/19 04:48:30;;;;;;;7.20;3.37;;;;;;;14.35;52.19;97899.44;5009484;28;20792;-70
2023/05/19 04:50:56;;;;;;;9.57;3.50;;;;;;;14.26;52.61;97904.66;5013894;28;20420;-71
2023/05/19 04:53:24;;;;;;;10.70;3.67;;;;;;;14.29;52.62;97900.91;5011543;28;20440;-69
2023/05/19 04:55:50;;;;;;;5.63;3.30;;;;;;;14.37;52.31;97903.56;5015614;28;20184;-69
2023/05/19 04:58:15;;;;;;;9.10;3.87;;;;;;;14.39;52.03;97904.25;5010057;28;20432;-70
2023/05/19 05:00:41;;;;;;;7.80;3.50;;;;;;;14.43;51.31;97902.09;5008511;28;20196;-70
2023/05/19 05:03:07;;;;;;;8.10;3.67;;;;;;;14.44;51.08;97906.41;5008654;28;20272;-70
2023/05/19 05:05:33;;;;;;;7.63;3.20;;;;;;;14.49;51.01;97909.34;5008993;28;20242;-70
2023/05/19 05:07:59;;;;;;;6.07;3.50;;;;;;;14.47;50.39;97910.50;5010383;28;20196;-69
2023/05/19 05:10:24;;;;;;;4.47;2.90;;;;;;;14.50;50.30;97908.38;5010332;28;20428;-67
2023/05/19 05:12:50;;;;;;;6.73;3.63;;;;;;;14.54;49.99;97911.53;4998433;28;20204;-68
2023/05/19 05:15:16;;;;;;;8.10;3.70;;;;;;;14.55;49.73;97903.47;5000886;28;20265;-68
2023/05/19 05:17:42;;;;;;;13.93;3.40;;;;;;;14.60;49.72;97910.88;5009826;28;20271;-69
2023/05/19 05:20:10;;;;;;;11.33;3.50;;;;;;;14.63;49.72;97910.56;5009536;28;20428;-72
2023/05/19 05:22:37;;;;;;;5.00;3.37;;;;;;;14.68;49.70;97902.19;5004928;28;20467;-70
2023/05/19 05:25:03;;;;;;;10.03;3.57;;;;;;;14.75;49.53;97908.47;5017297;28;20428;-69
2023/05/19 05:27:29;;;;;;;5.87;3.20;;;;;;;14.80;49.35;97906.19;5009318;28;20489;-70
2023/05/19 05:29:54;;;;;;;7.00;3.50;;;;;;;14.82;49.35;97906.00;5005915;28;20924;-70
2023/05/19 05:32:20;;;;;;;9.27;3.80;;;;;;;14.83;49.34;97895.31;5013565;28;20299;-71
2023/05/19 05:34:46;;;;;;;10.57;3.30;;;;;;;14.87;49.29;97896.63;5008867;28;21008;-69
2023/05/19 05:37:11;;;;;;;7.87;4.23;;;;;;;14.91;48.96;97889.22;5009943;28;20190;-70
2023/05/19 05:39:36;;;;;;;10.73;4.00;;;;;;;14.90;48.96;97901.56;5005829;28;20215;-70
2023/05/19 05:42:02;;;;;;;6.57;4.10;;;;;;;14.94;48.42;97901.25;5006184;28;20538;-70
2023/05/19 05:44:27;;;;;;;7.57;3.73;;;;;;;14.94;48.35;97901.25;5005409;28;20215;-69
2023/05/19 05:46:53;;;;;;;11.30;4.00;;;;;;;14.94;48.31;97903.91;5011975;28;20238;-69
2023/05/19 05:49:19;;;;;;;9.03;4.00;;;;;;;15.00;48.33;97913.78;5040826;28;20187;-70
2023/05/19 05:51:45;;;;;;;6.70;3.43;;;;;;;15.04;48.59;97904.56;5013702;28;20184;-70
2023/05/19 05:54:11;;;;;;;10.10;4.10;;;;;;;15.12;48.56;97909.84;5009609;28;20234;-69
2023/05/19 05:56:36;;;;;;;9.67;3.60;;;;;;;15.20;48.64;97912.50;5018729;28;20646;-70
2023/05/19 05:59:02;;;;;;;6.67;3.80;;;;;;;15.27;48.02;97911.84;5009505;28;20435;-70
2023/05/19 06:01:29;;;;;;;7.60;4.10;;;;;;;15.37;47.82;97907.22;5009481;28;20188;-69
2023/05/19 06:03:55;;;;;;;8.40;3.77;;;;;;;15.48;47.69;97917.47;4999187;28;20287;-70
2023/05/19 06:06:20;;;;;;;9.63;3.90;;;;;;;15.59;47.65;97912.81;5009521;28;20562;-69
2023/05/19 06:08:46;;;;;;;12.20;3.80;;;;;;;15.71;46.93;97908.00;5011397;28;20188;-71
2023/05/19 06:11:11;;;;;;;4.77;3.50;;;;;;;15.80;46.73;97897.25;5009437;28;20196;-72
2023/05/19 06:13:37;;;;;;;6.53;3.50;;;;;;;15.92;46.33;97894.28;5009105;28;20200;-70
2023/05/19 06:16:04;;;;;;;7.20;3.40;;;;;;;16.04;45.99;97902.69;5012607;28;20188;-71
2023/05/19 06:18:29;;;;;;;5.73;3.30;;;;;;;16.12;45.59;97905.28;5012125;28;20431;-72
2023/05/19 06:20:55;;;;;;;8.23;3.80;;;;;;;16.20;45.50;97897.31;5016124;28;20434;-71
2023/05/19 06:23:21;;;;;;;6.27;3.50;;;;;;;16.24;45.34;97892.53;5037787;28;20216;-71
2023/05/19 06:25:46;;;;;;;9.73;3.87;;;;;;;16.33;45.50;97888.84;5008860;28;20804;-71
2023/05/19 06:28:11;;;;;;;10.43;3.87;;;;;;;16.44;45.38;97890.28;5008906;28;20184;-72
2023/05/19 06:30:37;;;;;;;7.20;3.90;;;;;;;16.54;45.06;97892.69;5008020;28;20184;-71
2023/05/19 06:33:02;;;;;;;5.67;3.43;;;;;;;16.60;44.82;97892.03;5006068;28;20215;-71
2023/05/19 06:35:29;;;;;;;13.43;4.93;;;;;;;16.68;44.60;97889.31;5008749;28;20185;-71
2023/05/19 06:37:57;;;;;;;8.07;3.70;;;;;;;16.73;44.43;97892.28;5008344;28;20242;-71
2023/05/19 06:40:22;;;;;;;14.30;4.10;;;;;;;16.72;44.15;97890.63;5008209;28;21056;-72
2023/05/19 06:42:48;;;;;;;14.30;4.00;;;;;;;16.75;44.01;97894.75;5008090;28;20545;-72
2023/05/19 06:45:13;;;;;;;5.93;3.27;;;;;;;16.78;44.29;97894.41;5017164;28;20347;-72
2023/05/19 06:47:43;;;;;;;9.70;3.87;;;;;;;16.82;44.41;97894.84;5007226;28;20191;-70
2023/05/19 06:50:09;;;;;;;8.23;4.00;;;;;;;16.89;44.11;97891.34;5013995;28;20220;-71
2023/05/19 06:52:34;;;;;;;9.00;4.10;;;;;;;16.93;43.92;97891.81;5009080;28;20475;-72
2023/05/19 06:55:00;;;;;;;10.00;4.23;;;;;;;16.93;44.00;97891.00;5010588;28;20859;-71
2023/05/19 06:57:25;;;;;;;9.63;3.80;;;;;;;16.98;44.33;97896.59;5013718;28;20246;-71
2023/05/19 06:59:51;;;;;;;7.37;4.10;;;;;;;16.99;44.00;97895.59;5008313;28;20275;-71
2023/05/19 07:02:16;;;;;;;7.03;3.73;;;;;;;17.08;44.11;97886.59;5008170;28;20216;-71
2023/05/19 07:04:42;;;;;;;6.00;3.50;;;;;;;17.29;43.98;97893.06;5008060;28;20223;-71
2023/05/19 07:07:07;;;;;;;9.57;4.30;;;;;;;17.39;43.79;97884.88;5007433;28;20247;-70
2023/05/19 07:09:33;;;;;;;8.03;4.43;;;;;;;17.43;43.46;97883.50;5007613;28;20195;-71
2023/05/19 07:11:58;;;;;;;8.13;4.07;;;;;;;17.42;43.22;97889.78;5008181;28;20833;-72
2023/05/19 07:14:24;;;;;;;9.30;4.67;;;;;;;17.32;43.37;97887.41;5009460;28;20676;-71
2023/05/19 07:16:49;;;;;;;8.60;3.90;;;;;;;17.28;43.66;97894.06;5009001;28;20610;-71
2023/05/19 07:19:14;;;;;;;12.40;4.40;;;;;;;17.25;44.10;97887.31;5013790;28;20180;-72
2023/05/19 07:21:41;;;;;;;14.17;4.03;;;;;;;17.24;44.41;97888.31;5009097;28;20299;-72
2023/05/19 07:24:06;;;;;;;9.63;4.10;;;;;;;17.20;44.18;97887.00;5009365;28;20212;-70
2023/05/19 07:26:32;;;;;;;7.27;3.50;;;;;;;17.20;44.35;97887.81;5008352;28;20435;-71
2023/05/19 07:28:57;;;;;;;12.83;4.37;;;;;;;17.23;44.59;97886.66;5009692;28;20279;-72
2023/05/19 07:31:23;;;;;;;6.23;3.80;;;;;;;17.24;44.23;97877.72;5006965;28;20196;-72
2023/05/19 07:33:48;;;;;;;10.23;3.53;;;;;;;17.27;44.28;97879.97;5008353;28;20683;-71
2023/05/19 07:36:13;;;;;;;8.93;3.47;;;;;;;17.28;44.62;97884.28;5008410;28;20178;-71
2023/05/19 07:38:39;;;;;;;8.87;4.23;;;;;;;17.28;44.43;97884.28;5006032;28;20192;-71
2023/05/19 07:41:04;;;;;;;7.67;3.90;;;;;;;17.29;44.21;97880.63;5012228;28;20732;-72
2023/05/19 07:43:30;;;;;;;13.60;3.83;;;;;;;17.34;44.52;97882.72;5012029;28;20659;-71
2023/05/19 07:45:56;;;;;;;12.57;4.23;;;;;;;17.30;44.04;97881.47;5016590;28;20191;-71
2023/05/19 07:48:23;;;;;;;9.50;3.63;;;;;;;17.27;44.30;97877.31;5010082;28;20272;-70
2023/05/19 07:50:49;;;;;;;8.90;3.97;;;;;;;17.29;44.96;97879.81;5013200;28;20746;-72
2023/05/19 07:53:15;;;;;;;6.27;4.37;;;;;;;17.34;44.45;97872.13;5017798;28;20440;-71
2023/05/19 07:55:40;;;;;;;7.03;3.53;;;;;;;17.40;44.75;97876.72;5013732;28;20926;-71
2023/05/19 07:58:06;;;;;;;7.77;4.60;;;;;;;17.40;44.49;97876.72;5012304;28;20415;-71
2023/05/19 08:00:31;;;;;;;7.07;3.60;;;;;;;17.41;44.55;97878.38;5011746;28;20191;-70
2023/05/19 08:02:57;;;;;;;5.80;3.57;;;;;;;17.40;44.30;97875.91;5011276;28;20265;-70
2023/05/19 08:05:24;;;;;;;10.30;3.87;;;;;;;17.32;43.93;97872.31;5013998;28;20266;-71
2023/05/19 08:07:49;;;;;;;8.73;3.77;;;;;;;17.34;43.92;97872.97;5015565;28;20184;-70
2023/05/19 08:10:15;;;;;;;12.47;4.13;;;;;;;17.37;44.03;97865.69;5024062;28;20885;-71
2023/05/19 08:12:40;;;;;;;9.47;3.87;;;;;;;17.34;44.40;97867.69;5011125;28;20203;-69
2023/05/19 08:15:06;;;;;;;9.23;3.20;;;;;;;17.34;44.52;97862.38;5015910;28;20176;-71
2023/05/19 08:17:32;;;;;;;8.90;3.50;;;;;;;17.35;44.53;97858.72;5011544;28;20573;-73
2023/05/19 08:19:59;;;;;;;7.10;3.53;;;;;;;17.35;44.69;97864.03;5011091;28;20430;-71
2023/05/19 08:22:24;;;;;;;15.97;3.77;;;;;;;17.29;43.94;97866.56;5011935;28;20274;-70
2023/05/19 08:24:50;;;;;;;8.90;3.70;;;;;;;17.28;43.72;97857.78;5012499;28;20427;-71
2023/05/19 08:27:15;;;;;;;11.20;4.40;;;;;;;17.27;43.87;97860.63;5011553;28;20187;-70
2023/05/19 08:29:41;;;;;;;7.37;3.50;;;;;;;17.27;44.10;97864.09;5010999;28;20735;-72
2023/05/19 08:32:07;;;;;;;8.63;4.23;;;;;;;17.29;44.53;97859.44;5010354;28;20189;-72
2023/05/19 08:34:32;;;;;;;11.10;4.30;;;;;;;17.32;44.41;97848.50;5010705;28;20216;-71
2023/05/19 08:36:58;;;;;;;5.90;3.63;;;;;;;17.33;44.66;97850.13;5009650;28;20223;-71
2023/05/19 08:39:25;;;;;;;8.30;3.80;;;;;;;17.32;44.01;97859.09;5013079;28;20267;-71
2023/05/19 08:41:52;;;;;;;11.47;3.73;;;;;;;17.35;44.06;97865.84;5008990;28;20776;-71
2023/05/19 08:44:18;;;;;;;7.43;4.70;;;;;;;17.37;43.77;97855.09;5012358;28;20431;-72
2023/05/19 08:46:43;;;;;;;8.97;3.63;;;;;;;17.29;43.51;97843.53;5005953;28;20435;-72
2023/05/19 08:49:11;;;;;;;11.77;3.73;;;;;;;17.36;43.63;97851.59;5007855;28;20804;-72
2023/05/19 08:51:42;;;;;;;6.23;3.63;;;;;;;17.34;43.42;97843.84;5011950;28;20611;-71
2023/05/19 08:54:14;;;;;;;10.83;4.10;;;;;;;17.29;43.22;97843.53;5016712;28;20443;-70
2023/05/19 08:56:43;;;;;;;6.13;3.73;;;;;;;17.32;43.54;97848.50;5025721;28;20439;-71
2023/05/19 08:59:09;;;;;;;8.30;3.43;;;;;;;17.34;43.63;97841.19;5015147;28;20868;-70
2023/05/19 09:01:35;;;;;;;8.90;3.77;;;;;;;17.41;43.76;97846.59;5015961;28;20939;-72
2023/05/19 09:04:01;;;;;;;8.00;3.83;;;;;;;17.51;43.55;97841.03;5009618;28;21002;-71
2023/05/19 09:06:31;;;;;;;8.23;3.97;;;;;;;17.59;43.55;97843.59;5012140;28;20459;-73
2023/05/19 09:08:56;;;;;;;9.30;3.67;;;;;;;17.64;43.45;97849.16;5011871;28;20983;-70
2023/05/19 09:11:22;;;;;;;7.47;4.10;;;;;;;17.71;42.96;97840.50;5019331;28;20422;-72
2023/05/19 09:13:48;;;;;;;7.37;3.40;;;;;;;17.77;43.08;97845.03;5019237;28;20261;-71
2023/05/19 09:16:14;;;;;;;5.47;3.37;;;;;;;17.84;42.98;97842.50;5013727;28;20192;-70
2023/05/19 09:18:39;;;;;;;14.57;4.00;;;;;;;17.86;43.28;97838.66;5018209;28;20442;-70
2023/05/19 09:21:06;;;;;;;7.63;3.73;;;;;;;17.90;42.94;97845.22;5007991;28;20435;-70
2023/05/19 09:23:32;;;;;;;9.10;3.77;;;;;;;17.94;42.74;97845.72;5017898;28;20881;-70
2023/05/19 09:26:06;;;;;;;11.53;3.37;;;;;;;17.92;42.33;97848.53;4984571;28;20936;-72
2023/05/19 09:28:34;;;;;;;4.53;3.27;;;;;;;17.89;42.55;97854.22;5012135;28;20801;-70
2023/05/19 09:31:12;;;;;;;13.60;3.23;;;;;;;17.90;42.14;97849.72;4971725;28;1083184;-71
2023/05/19 09:33:38;;;;;;;12.03;4.13;;;;;;;17.92;42.76;97847.72;5011042;28;20200;-69
2023/05/19 09:36:07;;;;;;;10.00;3.30;;;;;;;17.90;42.81;97845.22;5009560;28;20427;-71
2023/05/19 09:38:34;;;;;;;8.47;3.50;;;;;;;17.91;42.43;97841.56;5020324;28;20428;-70
2023/05/19 09:41:00;;;;;;;8.93;4.03;;;;;;;17.85;42.34;97842.31;5009956;28;20510;-72
2023/05/19 09:43:29;;;;;;;10.77;3.80;;;;;;;17.85;42.84;97842.31;5009695;28;20457;-73
2023/05/19 09:46:05;;;;;;;8.40;4.00;;;;;;;17.85;43.24;97837.03;5015226;28;20423;-72
2023/05/19 09:48:32;;;;;;;6.03;3.40;;;;;;;17.81;43.04;97838.38;5009936;28;20518;-72
2023/05/19 09:50:59;;;;;;;12.43;4.20;;;;;;;17.84;43.00;97835.38;5010997;28;21152;-70
2023/05/19 09:53:25;;;;;;;15.93;3.80;;;;;;;17.87;42.79;97837.66;5013286;28;20440;-71
2023/05/19 09:55:56;;;;;;;6.60;3.80;;;;;;;17.85;42.69;97830.88;5013274;28;20482;-70
2023/05/19 09:58:23;;;;;;;10.90;3.60;;;;;;;17.87;42.72;97834.19;5017565;28;20654;-71
2023/05/19 10:00:49;;;;;;;8.10;4.00;;;;;;;17.85;42.98;97823.75;5007833;28;20438;-70
2023/05/19 10:03:16;;;;;;;7.60;3.77;;;;;;;17.85;42.86;97831.72;5007717;28;20462;-70
2023/05/19 10:05:42;;;;;;;7.90;3.20;;;;;;;17.87;42.90;97832.34;5012001;28;20429;-71
2023/05/19 10:08:09;;;;;;;8.70;4.03;;;;;;;17.90;43.04;97829.31;5002237;28;20418;-71
2023/05/19 10:10:36;;;;;;;7.57;3.70;;;;;;;17.93;43.22;97828.97;5013555;28;20200;-71
2023/05/19 10:13:05;;;;;;;7.97;3.83;;;;;;;17.95;42.96;97818.19;5011249;28;20507;-71
2023/05/19 10:15:31;;;;;;;8.27;3.43;;;;;;;17.94;42.60;97830.59;5012528;28;20471;-71
2023/05/19 10:17:58;;;;;;;4.30;3.33;;;;;;;18.00;42.71;97826.41;5015071;28;20435;-70
2023/05/19 10:20:23;;;;;;;7.97;3.60;;;;;;;18.00;42.64;97828.28;5013612;28;20828;-70
2023/05/19 10:22:49;;;;;;;6.67;3.47;;;;;;;17.95;42.18;97837.56;5007216;28;20471;-71
2023/05/19 10:25:17;;;;;;;8.83;3.73;;;;;;;17.92;42.50;97827.31;5012865;28;20251;-71
2023/05/19 10:28:00;;;;;;;8.43;3.83;;;;;;;17.78;42.62;97830.78;5013057;28;20721;-72
2023/05/19 10:30:28;;;;;;;16.30;4.90;;;;;;;17.72;42.74;97837.66;5023561;28;20455;-71
2023/05/19 10:32:56;;;;;;;4.43;3.20;;;;;;;17.79;42.82;97843.88;5009105;28;20443;-71
2023/05/19 10:35:36;;;;;;;6.27;3.57;;;;;;;17.79;43.12;97830.63;5010947;28;20803;-72
2023/05/19 10:38:12;;;;;;;5.30;3.27;;;;;;;17.80;42.56;97831.44;5011948;28;20427;-71
2023/05/19 10:41:10;;;;;;;14.07;3.23;;;;;;;17.79;43.16;97827.13;5008709;28;20458;-72
2023/05/19 10:43:48;;;;;;;7.87;3.23;;;;;;;17.78;43.45;97825.50;5009936;28;20475;-69
2023/05/19 10:46:14;;;;;;;5.87;3.63;;;;;;;17.75;42.97;97828.53;5016418;28;20427;-71
2023/05/19 10:48:44;;;;;;;11.77;4.20;;;;;;;17.76;43.16;97825.69;5014028;28;20436;-72
2023/05/19 10:51:11;;;;;;;7.03;3.10;;;;;;;17.77;43.11;97818.53;5031931;28;20982;-71
2023/05/19 10:53:40;;;;;;;5.80;3.80;;;;;;;17.78;43.13;97822.84;5012587;28;20791;-72
2023/05/19 10:56:06;;;;;;;4.70;3.20;;;;;;;17.81;43.12;97818.00;5014822;28;20435;-71
2023/05/19 10:58:37;;;;;;;5.50;3.70;;;;;;;17.81;43.07;97822.47;5012016;28;20463;-70
2023/05/19 11:01:07;;;;;;;9.90;3.67;;;;;;;17.83;42.94;97817.81;5010531;28;20951;-71
2023/05/19 11:03:43;;;;;;;5.97;3.87;;;;;;;17.86;42.83;97822.75;5014873;28;20463;-72
2023/05/19 11:06:28;;;;;;;6.80;3.43;;;;;;;17.76;42.46;97822.22;5015378;28;20928;-70
2023/05/19 11:08:57;;;;;;;12.43;3.67;;;;;;;17.82;42.41;97829.44;5013514;28;20435;-72
2023/05/19 11:11:22;;;;;;;6.20;3.47;;;;;;;17.84;42.57;97829.22;5017909;28;21004;-71
2023/05/19 11:13:55;;;;;;;6.30;3.53;;;;;;;17.82;42.90;97826.78;5012364;28;20439;-70
2023/05/19 11:16:33;;;;;;;5.83;3.17;;;;;;;17.82;42.79;97826.78;5007859;28;20593;-72
2023/05/19 11:18:58;;;;;;;7.77;3.70;;;;;;;17.87;42.67;97828.88;5014502;28;20431;-70
2023/05/19 11:21:40;;;;;;;4.67;3.30;;;;;;;17.90;42.41;97833.81;5009109;28;20435;-70
2023/05/19 11:24:07;;;;;;;10.37;3.70;;;;;;;17.92;42.57;97831.81;4949087;28;20258;-73
2023/05/19 11:26:41;;;;;;;8.07;3.60;;;;;;;17.91;42.74;97825.66;5012709;28;20431;-70
2023/05/19 11:29:06;;;;;;;7.30;3.80;;;;;;;17.91;42.78;97824.84;5007125;28;20458;-73
2023/05/19 11:31:35;;;;;;;5.93;3.13;;;;;;;17.93;42.84;97828.97;5014650;28;20438;-73